Time;durP1;ratioP1;P1;durP2;ratioP2;P2;SDS_P1;SDS_P2;PMS_P1;PMS_P2;Temp;Humidity;BMP_temperature;BMP_pressure;BME280_temperature;BME280_humidity;BME280_pressure;Samples;Min_cycle;Max_cycle;Signal;HPM_P1;HPM_P2
2023/07/27 00:02:11;;;;;;;1.20;1.10;;;;;;;;;;5010594;28;20049;-58
2023/07/27 00:04:37;;;;;;;1.40;1.17;;;;;;;;;;5026000;28;20049;-58
2023/07/27 00:07:04;;;;;;;1.90;1.40;;;;;;;;;;5025260;28;20068;-58
2023/07/27 00:09:30;;;;;;;1.10;1.00;;;;;;;;;;5011039;28;20071;-58
2023/07/27 00:11:56;;;;;;;1.65;1.55;;;;;;;;;;5006566;28;20038;-58
2023/07/27 00:14:22;;;;;;;1.45;1.30;;;;;;;;;;5004715;28;20045;-58
2023/07/27 00:16:48;;;;;;;1.30;1.20;;;;;;;;;;5006587;28;20196;-59
2023/07/27 00:19:14;;;;;;;1.50;1.40;;;;;;;;;;5006647;28;20462;-59
2023/07/27 00:21:40;;;;;;;1.15;1.00;;;;;;;;;;5006046;28;20062;-59
2023/07/27 00:24:06;;;;;;;1.13;1.02;;;;;;;;;;5005845;28;20168;-59
2023/07/27 00:26:32;;;;;;;1.45;1.33;;;;;;;;;;5006254;28;20093;-60
2023/07/27 00:28:58;;;;;;;2.08;1.30;;;;;;;;;;5014244;28;20042;-59
2023/07/27 00:31:24;;;;;;;1.55;1.45;;;;;;;;;;5019116;28;20192;-59
2023/07/27 00:33:50;;;;;;;2.17;1.17;;;;;;;;;;5006842;28;20745;-58
2023/07/27 00:36:17;;;;;;;1.50;0.90;;;;;;;;;;5006026;28;20052;-59
2023/07/27 00:38:42;;;;;;;1.38;1.25;;;;;;;;;;5006412;28;20491;-59
2023/07/27 00:41:08;;;;;;;1.40;1.30;;;;;;;;;;5005430;28;20042;-59
2023/07/27 00:43:35;;;;;;;1.58;1.48;;;;;;;;;;5009900;28;20072;-60
2023/07/27 00:46:01;;;;;;;1.40;1.30;;;;;;;;;;5025667;28;20037;-59
2023/07/27 00:48:27;;;;;;;1.42;1.30;;;;;;;;;;5005873;28;20462;-59
2023/07/27 00:50:54;;;;;;;1.17;1.08;;;;;;;;;;5005581;28;20550;-59
2023/07/27 00:53:20;;;;;;;1.33;1.23;;;;;;;;;;5006768;28;20111;-59
2023/07/27 00:55:46;;;;;;;1.45;1.27;;;;;;;;;;5018614;28;20121;-59
2023/07/27 00:58:13;;;;;;;1.30;1.10;;;;;;;;;;5018699;28;20373;-59
2023/07/27 01:00:42;;;;;;;1.13;1.02;;;;;;;;;;5005794;28;20078;-59
2023/07/27 01:03:08;;;;;;;1.42;1.33;;;;;;;;;;5005077;28;20117;-59
2023/07/27 01:05:35;;;;;;;1.55;1.27;;;;;;;;;;5005641;28;20061;-60
2023/07/27 01:08:01;;;;;;;1.20;1.10;;;;;;;;;;5005529;28;20038;-60
2023/07/27 01:10:47;;;;;;;1.80;1.02;;;;;;;;;;5011852;28;20402;-59
2023/07/27 01:13:19;;;;;;;2.33;1.00;;;;;;;;;;5010459;28;20496;-59
2023/07/27 01:15:48;;;;;;;1.40;1.30;;;;;;;;;;5024199;28;20128;-59
2023/07/27 01:18:19;;;;;;;1.50;1.40;;;;;;;;;;5028863;28;20053;-59
2023/07/27 01:20:51;;;;;;;1.25;1.13;;;;;;;;;;5029843;28;20081;-60
2023/07/27 01:23:36;;;;;;;1.20;1.10;;;;;;;;;;5028615;28;20041;-59
2023/07/27 01:26:01;;;;;;;0.95;0.95;;;;;;;;;;5028898;28;20041;-59
2023/07/27 01:28:43;;;;;;;1.30;1.20;;;;;;;;;;5029109;28;20546;-59
2023/07/27 01:31:10;;;;;;;1.02;1.00;;;;;;;;;;5028439;28;20038;-59
2023/07/27 01:33:41;;;;;;;1.63;1.23;;;;;;;;;;5028841;28;20555;-59
2023/07/27 01:36:10;;;;;;;1.33;1.23;;;;;;;;;;5028570;28;20491;-60
2023/07/27 01:38:38;;;;;;;1.15;0.95;;;;;;;;;;5028623;28;20049;-60
2023/07/27 01:41:05;;;;;;;1.27;1.08;;;;;;;;;;5029248;28;20042;-59
2023/07/27 01:43:32;;;;;;;1.10;0.88;;;;;;;;;;5029020;28;20212;-59
2023/07/27 01:45:59;;;;;;;1.30;1.20;;;;;;;;;;5019252;28;20110;-58
2023/07/27 01:48:26;;;;;;;1.45;1.25;;;;;;;;;;5021371;28;20380;-58
2023/07/27 01:50:52;;;;;;;1.42;1.20;;;;;;;;;;5017064;28;20057;-58
2023/07/27 01:53:19;;;;;;;1.23;1.08;;;;;;;;;;5017101;28;20041;-56
2023/07/27 01:55:45;;;;;;;1.55;1.42;;;;;;;;;;5018971;28;20050;-58
2023/07/27 01:58:12;;;;;;;1.48;1.38;;;;;;;;;;5024206;28;20045;-58
2023/07/27 02:00:39;;;;;;;1.23;1.08;;;;;;;;;;5018280;28;20189;-57
2023/07/27 02:03:05;;;;;;;1.15;1.05;;;;;;;;;;5017733;28;20079;-58
2023/07/27 02:05:31;;;;;;;0.90;0.75;;;;;;;;;;5018662;28;20056;-57
2023/07/27 02:07:57;;;;;;;1.13;1.02;;;;;;;;;;5019656;28;20042;-58
2023/07/27 02:10:24;;;;;;;0.80;0.80;;;;;;;;;;5019555;28;20049;-57
2023/07/27 02:13:01;;;;;;;1.00;0.90;;;;;;;;;;5016439;28;20105;-58
2023/07/27 02:15:30;;;;;;;1.08;0.98;;;;;;;;;;5017181;28;20060;-58
2023/07/27 02:18:16;;;;;;;1.27;1.17;;;;;;;;;;5022692;28;20041;-58
2023/07/27 02:20:43;;;;;;;1.05;0.90;;;;;;;;;;5018486;28;20049;-58
2023/07/27 02:23:10;;;;;;;0.88;0.82;;;;;;;;;;5010845;28;20054;-58
2023/07/27 02:25:36;;;;;;;0.93;0.80;;;;;;;;;;5013593;28;20050;-58
2023/07/27 02:28:02;;;;;;;0.85;0.85;;;;;;;;;;5020456;28;20047;-58
2023/07/27 02:30:28;;;;;;;1.08;0.98;;;;;;;;;;5019835;28;20037;-59
2023/07/27 02:32:54;;;;;;;0.95;0.90;;;;;;;;;;5015646;28;20054;-58
2023/07/27 02:35:20;;;;;;;0.80;0.80;;;;;;;;;;5022048;28;20087;-59
2023/07/27 02:37:47;;;;;;;0.90;0.90;;;;;;;;;;5014861;28;20041;-58
2023/07/27 02:40:13;;;;;;;1.40;1.30;;;;;;;;;;5027853;28;20037;-60
2023/07/27 02:42:39;;;;;;;0.88;0.88;;;;;;;;;;5027308;28;20049;-59
2023/07/27 02:45:05;;;;;;;1.38;1.27;;;;;;;;;;5007923;28;20103;-58
2023/07/27 02:47:31;;;;;;;0.80;0.80;;;;;;;;;;5007242;28;20065;-58
2023/07/27 02:49:57;;;;;;;0.88;0.73;;;;;;;;;;5020103;28;20080;-58
2023/07/27 02:52:23;;;;;;;1.20;1.10;;;;;;;;;;5015049;28;20050;-59
2023/07/27 02:54:50;;;;;;;1.60;1.10;;;;;;;;;;5014619;28;20054;-58
2023/07/27 02:57:16;;;;;;;1.20;1.10;;;;;;;;;;5016001;28;20038;-60
2023/07/27 02:59:42;;;;;;;0.93;0.93;;;;;;;;;;5015460;28;20434;-59
2023/07/27 03:02:08;;;;;;;1.10;1.00;;;;;;;;;;5020500;28;20041;-59
2023/07/27 03:04:34;;;;;;;1.10;1.00;;;;;;;;;;5009593;28;20149;-59
2023/07/27 03:07:00;;;;;;;1.10;1.00;;;;;;;;;;5007638;28;20162;-60
2023/07/27 03:09:27;;;;;;;1.08;1.02;;;;;;;;;;5006865;28;20092;-59
2023/07/27 03:11:53;;;;;;;1.35;1.00;;;;;;;;;;5007268;28;20038;-60
2023/07/27 03:14:19;;;;;;;0.82;0.77;;;;;;;;;;5006966;28;20064;-59
2023/07/27 03:16:45;;;;;;;0.90;0.80;;;;;;;;;;5007028;28;20053;-60
2023/07/27 03:19:11;;;;;;;0.57;0.57;;;;;;;;;;5007132;28;20073;-59
2023/07/27 03:21:37;;;;;;;0.90;0.90;;;;;;;;;;5007376;28;20651;-60
2023/07/27 03:24:03;;;;;;;0.82;0.80;;;;;;;;;;5006101;28;20076;-60
2023/07/27 03:26:29;;;;;;;1.00;0.70;;;;;;;;;;5007111;28;20038;-59
2023/07/27 03:28:55;;;;;;;0.70;0.70;;;;;;;;;;5007421;28;20041;-60
2023/07/27 03:31:22;;;;;;;1.30;0.90;;;;;;;;;;5011279;28;20057;-60
2023/07/27 03:33:49;;;;;;;0.63;0.63;;;;;;;;;;5008385;28;20042;-60
2023/07/27 03:36:16;;;;;;;0.98;0.88;;;;;;;;;;5011691;28;20124;-60
2023/07/27 03:38:42;;;;;;;0.60;0.60;;;;;;;;;;5011755;28;20041;-60
2023/07/27 03:41:08;;;;;;;1.00;0.70;;;;;;;;;;5026510;28;20148;-60
2023/07/27 03:43:34;;;;;;;0.93;0.93;;;;;;;;;;5010723;28;20132;-60
2023/07/27 03:46:00;;;;;;;1.40;1.05;;;;;;;;;;5006209;28;20452;-60
2023/07/27 03:48:26;;;;;;;1.17;1.05;;;;;;;;;;5007335;28;20095;-60
2023/07/27 03:50:55;;;;;;;1.10;1.00;;;;;;;;;;5006853;28;20041;-60
2023/07/27 03:53:21;;;;;;;0.95;0.85;;;;;;;;;;5006601;28;20088;-60
2023/07/27 03:55:47;;;;;;;1.08;0.95;;;;;;;;;;5008099;28;20124;-60
2023/07/27 03:58:13;;;;;;;1.30;1.13;;;;;;;;;;5007553;28;20037;-59
2023/07/27 04:00:39;;;;;;;2.08;1.77;;;;;;;;;;5006617;28;20590;-59
2023/07/27 04:03:05;;;;;;;1.42;1.33;;;;;;;;;;5006299;28;20042;-60
2023/07/27 04:05:31;;;;;;;1.63;1.40;;;;;;;;;;5004716;28;20050;-59
2023/07/27 04:07:57;;;;;;;1.67;1.58;;;;;;;;;;5016125;28;20368;-60
2023/07/27 04:10:24;;;;;;;1.77;1.67;;;;;;;;;;5012015;28;20502;-60
2023/07/27 04:12:51;;;;;;;1.52;1.42;;;;;;;;;;5006692;28;20042;-60
2023/07/27 04:15:17;;;;;;;1.60;1.50;;;;;;;;;;5007781;28;20099;-60
2023/07/27 04:17:43;;;;;;;1.40;1.30;;;;;;;;;;5008352;28;20045;-60
2023/07/27 04:20:10;;;;;;;1.25;1.15;;;;;;;;;;5005406;28;20049;-58
2023/07/27 04:22:36;;;;;;;1.20;1.10;;;;;;;;;;5006375;28;20041;-58
2023/07/27 04:25:02;;;;;;;1.60;1.50;;;;;;;;;;5012235;28;20095;-58
2023/07/27 04:27:28;;;;;;;1.52;1.25;;;;;;;;;;5014165;28;20080;-58
2023/07/27 04:29:54;;;;;;;1.00;1.00;;;;;;;;;;5008114;28;20049;-58
2023/07/27 04:32:20;;;;;;;0.93;0.90;;;;;;;;;;5005921;28;20727;-58
2023/07/27 04:34:46;;;;;;;1.45;1.35;;;;;;;;;;5009839;28;20041;-58
2023/07/27 04:37:12;;;;;;;1.20;1.10;;;;;;;;;;5025395;28;20045;-58
2023/07/27 04:39:38;;;;;;;1.48;1.38;;;;;;;;;;5009659;28;20376;-58
2023/07/27 04:42:04;;;;;;;1.42;1.33;;;;;;;;;;5024857;28;20128;-58
2023/07/27 04:44:31;;;;;;;1.00;1.00;;;;;;;;;;5025707;28;20034;-57
2023/07/27 04:46:58;;;;;;;1.30;1.20;;;;;;;;;;5024606;28;20049;-58
2023/07/27 04:49:24;;;;;;;1.50;1.40;;;;;;;;;;5022713;28;20049;-57
2023/07/27 04:51:50;;;;;;;1.20;1.10;;;;;;;;;;5005036;28;20052;-58
2023/07/27 04:54:16;;;;;;;1.30;1.20;;;;;;;;;;5011404;28;20041;-58
2023/07/27 04:56:42;;;;;;;1.20;1.10;;;;;;;;;;5025614;28;20056;-58
2023/07/27 04:59:08;;;;;;;1.63;1.40;;;;;;;;;;5025256;28;20442;-58
2023/07/27 05:01:34;;;;;;;1.80;1.40;;;;;;;;;;5025037;28;20124;-58
2023/07/27 05:04:00;;;;;;;1.90;1.70;;;;;;;;;;5024532;28;20128;-58
2023/07/27 05:06:26;;;;;;;2.22;2.00;;;;;;;;;;5015052;28;20121;-57
2023/07/27 05:08:52;;;;;;;1.92;1.73;;;;;;;;;;5015888;28;20081;-57
2023/07/27 05:11:18;;;;;;;1.83;1.60;;;;;;;;;;5025579;28;20835;-58
2023/07/27 05:13:44;;;;;;;1.80;1.55;;;;;;;;;;5025739;28;20523;-58
2023/07/27 05:16:10;;;;;;;1.05;1.00;;;;;;;;;;5016928;28;20048;-58
2023/07/27 05:18:37;;;;;;;2.00;1.67;;;;;;;;;;5013691;28;20041;-58
2023/07/27 05:21:03;;;;;;;1.67;1.58;;;;;;;;;;5005775;28;20053;-57
2023/07/27 05:23:29;;;;;;;2.20;1.95;;;;;;;;;;5012867;28;20053;-58
2023/07/27 05:25:55;;;;;;;2.33;2.13;;;;;;;;;;5025134;28;20096;-57
2023/07/27 05:28:20;;;;;;;2.70;2.08;;;;;;;;;;5024905;28;20068;-58
2023/07/27 05:30:46;;;;;;;2.42;2.20;;;;;;;;;;5017674;28;20463;-58
2023/07/27 05:33:13;;;;;;;2.47;2.28;;;;;;;;;;5011454;28;20041;-57
2023/07/27 05:35:39;;;;;;;2.08;1.88;;;;;;;;;;5016930;28;20127;-58
2023/07/27 05:38:05;;;;;;;2.03;1.90;;;;;;;;;;5024550;28;20049;-58
2023/07/27 05:40:31;;;;;;;2.38;1.90;;;;;;;;;;5025484;28;20072;-58
2023/07/27 05:42:57;;;;;;;2.40;2.20;;;;;;;;;;5006094;28;20049;-57
2023/07/27 05:45:23;;;;;;;2.20;2.00;;;;;;;;;;5004302;28;20088;-58
2023/07/27 05:47:49;;;;;;;2.22;1.80;;;;;;;;;;5008586;28;20069;-58
2023/07/27 05:50:16;;;;;;;2.97;2.70;;;;;;;;;;5014112;28;20683;-58
2023/07/27 05:52:42;;;;;;;2.67;2.38;;;;;;;;;;5013536;28;20129;-58
2023/07/27 05:55:08;;;;;;;2.35;2.15;;;;;;;;;;5004834;28;20395;-57
2023/07/27 05:57:34;;;;;;;1.85;1.75;;;;;;;;;;5004508;28;20158;-58
2023/07/27 06:00:00;;;;;;;1.95;1.75;;;;;;;;;;5004973;28;20526;-58
2023/07/27 06:02:26;;;;;;;1.85;1.75;;;;;;;;;;5012781;28;20036;-57
2023/07/27 06:04:52;;;;;;;1.98;1.80;;;;;;;;;;5012689;28;20399;-58
2023/07/27 06:07:18;;;;;;;2.55;1.92;;;;;;;;;;5015138;28;20042;-58
2023/07/27 06:09:44;;;;;;;1.85;1.75;;;;;;;;;;5008406;28;20411;-58
2023/07/27 06:12:11;;;;;;;2.20;1.98;;;;;;;;;;5012064;28;20125;-57
2023/07/27 06:14:39;;;;;;;1.33;1.23;;;;;;;;;;5010288;28;20045;-58
2023/07/27 06:17:05;;;;;;;1.75;1.45;;;;;;;;;;5010075;28;20057;-58
2023/07/27 06:19:31;;;;;;;3.45;2.00;;;;;;;;;;5024952;28;20046;-58
2023/07/27 06:21:57;;;;;;;2.28;2.08;;;;;;;;;;5011536;28;20096;-57
2023/07/27 06:24:23;;;;;;;2.53;2.33;;;;;;;;;;5011546;28;20455;-58
2023/07/27 06:26:49;;;;;;;3.72;2.50;;;;;;;;;;5015009;28;20042;-58
2023/07/27 06:29:16;;;;;;;2.67;2.47;;;;;;;;;;5013320;28;20045;-58
2023/07/27 06:31:42;;;;;;;3.17;2.70;;;;;;;;;;5022410;28;20104;-58
2023/07/27 06:34:08;;;;;;;3.08;2.50;;;;;;;;;;5014978;28;20080;-58
2023/07/27 06:36:34;;;;;;;2.90;2.60;;;;;;;;;;5019181;28;20077;-58
2023/07/27 06:39:00;;;;;;;3.38;3.08;;;;;;;;;;5023388;28;20080;-58
2023/07/27 06:41:26;;;;;;;2.70;2.50;;;;;;;;;;5015530;28;20762;-58
2023/07/27 06:43:52;;;;;;;3.20;2.90;;;;;;;;;;5021897;28;20053;-57
2023/07/27 06:46:19;;;;;;;3.67;3.38;;;;;;;;;;5019374;28;20044;-58
2023/07/27 06:48:46;;;;;;;3.17;2.83;;;;;;;;;;5016262;28;20479;-58
2023/07/27 06:51:12;;;;;;;3.15;2.80;;;;;;;;;;5016215;28;20053;-58
2023/07/27 06:53:38;;;;;;;3.03;2.80;;;;;;;;;;5017310;28;20061;-58
2023/07/27 06:56:04;;;;;;;3.85;2.72;;;;;;;;;;5015830;28;20053;-58
2023/07/27 06:58:31;;;;;;;2.97;2.42;;;;;;;;;;5015565;28;20399;-58
2023/07/27 07:00:57;;;;;;;2.92;2.72;;;;;;;;;;5019245;28;20041;-58
2023/07/27 07:03:23;;;;;;;2.40;2.20;;;;;;;;;;5017410;28;20045;-57
2023/07/27 07:05:49;;;;;;;2.92;2.63;;;;;;;;;;5018972;28;20050;-57
2023/07/27 07:08:15;;;;;;;2.58;2.38;;;;;;;;;;5023048;28;20474;-58
2023/07/27 07:10:41;;;;;;;2.05;1.95;;;;;;;;;;5018977;28;20045;-58
2023/07/27 07:13:07;;;;;;;2.40;1.73;;;;;;;;;;5017347;28;20041;-58
2023/07/27 07:15:33;;;;;;;3.28;2.00;;;;;;;;;;5013794;28;20053;-58
2023/07/27 07:17:59;;;;;;;1.63;1.52;;;;;;;;;;5018440;28;20041;-57
2023/07/27 07:20:25;;;;;;;1.40;1.30;;;;;;;;;;5018922;28;20044;-57
2023/07/27 07:22:51;;;;;;;2.47;2.28;;;;;;;;;;5009464;28;20540;-58
2023/07/27 07:25:17;;;;;;;2.13;1.98;;;;;;;;;;5017135;28;20048;-58
2023/07/27 07:27:43;;;;;;;2.42;2.17;;;;;;;;;;5012576;28;20427;-58
2023/07/27 07:30:09;;;;;;;2.72;2.30;;;;;;;;;;5011957;28;20038;-60
2023/07/27 07:32:35;;;;;;;2.10;1.90;;;;;;;;;;5019386;28;20049;-58
2023/07/27 07:35:02;;;;;;;1.95;1.85;;;;;;;;;;5015396;28;20041;-58
2023/07/27 07:37:28;;;;;;;1.83;1.70;;;;;;;;;;5019567;28;20041;-58
2023/07/27 07:39:54;;;;;;;2.65;2.45;;;;;;;;;;5015756;28;20462;-58
2023/07/27 07:42:20;;;;;;;1.73;1.63;;;;;;;;;;5014340;28;20042;-58
2023/07/27 07:44:46;;;;;;;2.58;2.05;;;;;;;;;;5020600;28;20068;-57
2023/07/27 07:47:12;;;;;;;2.20;2.00;;;;;;;;;;5020628;28;20044;-56
2023/07/27 07:49:38;;;;;;;2.00;1.83;;;;;;;;;;5024048;28;20077;-56
2023/07/27 07:52:05;;;;;;;2.40;2.10;;;;;;;;;;5014561;28;20041;-56
2023/07/27 07:54:31;;;;;;;1.83;1.67;;;;;;;;;;5022054;28;20050;-60
2023/07/27 07:56:57;;;;;;;2.15;1.88;;;;;;;;;;5023538;28;20076;-54
2023/07/27 07:59:23;;;;;;;2.30;2.03;;;;;;;;;;5025376;28;20081;-58
2023/07/27 08:01:50;;;;;;;2.08;1.88;;;;;;;;;;5026011;28;20041;-57
2023/07/27 08:04:16;;;;;;;2.53;2.33;;;;;;;;;;5025216;28;20107;-58
2023/07/27 08:06:42;;;;;;;2.10;1.50;;;;;;;;;;5025880;28;20045;-57
2023/07/27 08:09:08;;;;;;;1.80;1.70;;;;;;;;;;5025415;28;20045;-57
2023/07/27 08:11:35;;;;;;;1.52;1.42;;;;;;;;;;5021254;28;20037;-54
2023/07/27 08:14:02;;;;;;;1.88;1.77;;;;;;;;;;5011510;28;20045;-58
2023/07/27 08:16:31;;;;;;;1.67;1.58;;;;;;;;;;5013067;28;20041;-59
2023/07/27 08:18:57;;;;;;;1.50;1.40;;;;;;;;;;5009655;28;20045;-58
2023/07/27 08:21:23;;;;;;;1.67;1.58;;;;;;;;;;5018604;28;20041;-58
2023/07/27 08:23:49;;;;;;;1.67;1.58;;;;;;;;;;5016370;28;20042;-58
2023/07/27 08:26:15;;;;;;;1.65;1.55;;;;;;;;;;5013020;28;20049;-58
2023/07/27 08:28:41;;;;;;;1.20;1.10;;;;;;;;;;5020746;28;20072;-58
2023/07/27 08:31:07;;;;;;;1.30;1.20;;;;;;;;;;5009606;28;20423;-58
2023/07/27 08:33:34;;;;;;;1.20;1.10;;;;;;;;;;5014661;28;20084;-57
2023/07/27 08:36:00;;;;;;;1.15;1.10;;;;;;;;;;5017198;28;20510;-58
2023/07/27 08:38:27;;;;;;;1.13;1.02;;;;;;;;;;5018259;28;20476;-58
2023/07/27 08:41:02;;;;;;;0.68;0.68;;;;;;;;;;5019110;28;20094;-58
2023/07/27 08:43:28;;;;;;;0.98;0.98;;;;;;;;;;5014505;28;20050;-58
2023/07/27 08:45:54;;;;;;;1.15;1.05;;;;;;;;;;5014959;28;20041;-58
2023/07/27 08:48:22;;;;;;;1.08;0.98;;;;;;;;;;5010231;28;20077;-58
2023/07/27 08:50:48;;;;;;;0.90;0.90;;;;;;;;;;5017767;28;20068;-58
2023/07/27 08:53:18;;;;;;;1.08;0.98;;;;;;;;;;5012872;28;20821;-58
2023/07/27 08:55:46;;;;;;;1.25;1.15;;;;;;;;;;5015000;28;20100;-58
2023/07/27 08:58:12;;;;;;;1.20;0.90;;;;;;;;;;5014180;28;20049;-56
2023/07/27 09:00:38;;;;;;;0.90;0.90;;;;;;;;;;5014604;28;20042;-57
2023/07/27 09:03:07;;;;;;;0.77;0.77;;;;;;;;;;5007123;28;20476;-58
2023/07/27 09:05:39;;;;;;;1.17;1.00;;;;;;;;;;5017553;28;20058;-59
2023/07/27 09:08:12;;;;;;;0.80;0.80;;;;;;;;;;5017753;28;20128;-59
2023/07/27 09:10:40;;;;;;;1.10;1.10;;;;;;;;;;5015646;28;20515;-57
2023/07/27 09:13:07;;;;;;;1.17;0.98;;;;;;;;;;5012980;28;20042;-59
2023/07/27 09:15:33;;;;;;;0.80;0.80;;;;;;;;;;5014368;28;20046;-56
2023/07/27 09:18:01;;;;;;;0.82;0.80;;;;;;;;;;5014406;28;20050;-58
2023/07/27 09:20:28;;;;;;;1.77;1.05;;;;;;;;;;5012664;28;20119;-58
2023/07/27 09:22:56;;;;;;;1.25;0.98;;;;;;;;;;5016425;28;20077;-57
2023/07/27 09:25:22;;;;;;;0.63;0.63;;;;;;;;;;5010591;28;20054;-58
2023/07/27 09:27:51;;;;;;;0.73;0.73;;;;;;;;;;5012640;28;20573;-58
2023/07/27 09:30:17;;;;;;;0.77;0.68;;;;;;;;;;5011983;28;20569;-57
2023/07/27 09:32:43;;;;;;;0.63;0.60;;;;;;;;;;5007352;28;20041;-56
2023/07/27 09:35:13;;;;;;;0.70;0.70;;;;;;;;;;5011565;28;20041;-58
2023/07/27 09:37:43;;;;;;;0.60;0.40;;;;;;;;;;5012305;28;20045;-57
2023/07/27 09:40:12;;;;;;;0.57;0.57;;;;;;;;;;5007915;28;20053;-58
2023/07/27 09:42:38;;;;;;;0.50;0.50;;;;;;;;;;5008111;28;20045;-57
2023/07/27 09:45:05;;;;;;;0.73;0.57;;;;;;;;;;5019642;28;20041;-60
2023/07/27 09:47:31;;;;;;;0.50;0.50;;;;;;;;;;5022817;28;20037;-59
2023/07/27 09:50:00;;;;;;;0.50;0.47;;;;;;;;;;5022208;28;20495;-57
2023/07/27 09:52:27;;;;;;;0.35;0.35;;;;;;;;;;5024553;28;20057;-57
2023/07/27 09:54:57;;;;;;;1.23;0.50;;;;;;;;;;5021969;28;20478;-57
2023/07/27 09:57:24;;;;;;;0.40;0.40;;;;;;;;;;5018598;28;20044;-57
2023/07/27 09:59:50;;;;;;;0.20;0.20;;;;;;;;;;5020956;28;20045;-58
2023/07/27 10:02:17;;;;;;;0.28;0.28;;;;;;;;;;5015334;28;20037;-60
2023/07/27 10:04:43;;;;;;;0.52;0.52;;;;;;;;;;5022530;28;20073;-57
2023/07/27 10:07:10;;;;;;;0.40;0.40;;;;;;;;;;5020749;28;20041;-57
2023/07/27 10:09:39;;;;;;;0.38;0.38;;;;;;;;;;5015941;28;20044;-59
2023/07/27 10:12:05;;;;;;;0.30;0.30;;;;;;;;;;5011402;28;20407;-61
2023/07/27 10:14:31;;;;;;;1.65;0.40;;;;;;;;;;5013654;28;20038;-64
2023/07/27 10:17:08;;;;;;;0.13;0.13;;;;;;;;;;5023390;28;20096;-62
2023/07/27 10:19:44;;;;;;;0.30;0.20;;;;;;;;;;5018586;28;20041;-62
2023/07/27 10:22:14;;;;;;;0.20;0.20;;;;;;;;;;5018570;28;20438;-62
2023/07/27 10:24:46;;;;;;;0.30;0.30;;;;;;;;;;5018187;28;20037;-63
2023/07/27 10:27:12;;;;;;;;;;;;;;;;;;5020826;28;20040;-62
2023/07/27 10:29:38;;;;;;;0.40;0.40;;;;;;;;;;5016745;28;19917;-62
2023/07/27 10:32:08;;;;;;;0.32;0.28;;;;;;;;;;5021754;28;20044;-62
2023/07/27 10:34:34;;;;;;;0.20;0.20;;;;;;;;;;5023395;28;20048;-62
2023/07/27 10:37:01;;;;;;;0.30;0.30;;;;;;;;;;5022508;28;20128;-62
2023/07/27 10:39:32;;;;;;;0.20;0.20;;;;;;;;;;5019882;28;20113;-62
2023/07/27 10:42:04;;;;;;;1.45;0.40;;;;;;;;;;5016437;28;20073;-62
2023/07/27 10:44:46;;;;;;;0.30;0.30;;;;;;;;;;5018880;28;20788;-62
2023/07/27 10:47:12;;;;;;;0.45;0.45;;;;;;;;;;5016093;28;20474;-62
2023/07/27 10:49:43;;;;;;;0.25;0.22;;;;;;;;;;5018679;28;20076;-62
2023/07/27 10:52:09;;;;;;;0.30;0.30;;;;;;;;;;5019856;28;20211;-62
2023/07/27 10:54:39;;;;;;;0.30;0.30;;;;;;;;;;5016482;28;20045;-62
2023/07/27 10:57:06;;;;;;;0.45;0.45;;;;;;;;;;5020900;28;20052;-62
2023/07/27 10:59:34;;;;;;;0.30;0.30;;;;;;;;;;5025673;28;20045;-62
2023/07/27 11:02:00;;;;;;;0.40;0.40;;;;;;;;;;5025372;28;20104;-62
2023/07/27 11:04:27;;;;;;;0.30;0.30;;;;;;;;;;5024018;28;20041;-61
2023/07/27 11:06:53;;;;;;;0.20;0.20;;;;;;;;;;5025826;28;20091;-62
2023/07/27 11:09:20;;;;;;;0.10;0.10;;;;;;;;;;5021368;28;20068;-62
2023/07/27 11:11:51;;;;;;;0.30;0.30;;;;;;;;;;5016730;28;20533;-62
2023/07/27 11:14:17;;;;;;;0.20;0.20;;;;;;;;;;5014850;28;20477;-61
2023/07/27 11:16:43;;;;;;;0.30;0.30;;;;;;;;;;5026709;28;20153;-62
2023/07/27 11:19:10;;;;;;;0.20;0.10;;;;;;;;;;5026398;28;20052;-61
2023/07/27 11:21:40;;;;;;;0.57;0.20;;;;;;;;;;5018111;28;20060;-62
2023/07/27 11:24:09;;;;;;;0.20;0.20;;;;;;;;;;5026635;28;20045;-62
2023/07/27 11:26:37;;;;;;;0.40;0.40;;;;;;;;;;5016803;28;20042;-62
2023/07/27 11:29:03;;;;;;;0.73;0.57;;;;;;;;;;5019899;28;20053;-61
2023/07/27 11:31:29;;;;;;;0.30;0.30;;;;;;;;;;5022305;28;20037;-60
2023/07/27 11:33:59;;;;;;;0.38;0.38;;;;;;;;;;5017542;28;20045;-60
2023/07/27 11:36:32;;;;;;;0.30;0.30;;;;;;;;;;5015234;28;20140;-61
2023/07/27 11:38:59;;;;;;;0.17;0.17;;;;;;;;;;5021493;28;20052;-61
2023/07/27 11:41:29;;;;;;;0.20;0.20;;;;;;;;;;5023171;28;20080;-61
2023/07/27 11:43:56;;;;;;;0.30;0.30;;;;;;;;;;5018649;28;20049;-61
2023/07/27 11:46:23;;;;;;;0.52;0.25;;;;;;;;;;5021026;28;20040;-61
2023/07/27 11:48:50;;;;;;;0.40;0.40;;;;;;;;;;5025987;28;20120;-62
2023/07/27 11:51:16;;;;;;;0.32;0.20;;;;;;;;;;5022420;28;20037;-62
2023/07/27 11:53:44;;;;;;;0.30;0.30;;;;;;;;;;5017998;28;20057;-62
2023/07/27 11:56:10;;;;;;;0.40;0.30;;;;;;;;;;5026532;28;20099;-62
2023/07/27 11:58:37;;;;;;;0.20;0.20;;;;;;;;;;5022589;28;20046;-61
2023/07/27 12:01:03;;;;;;;0.25;0.25;;;;;;;;;;5018841;28;20037;-61
2023/07/27 12:03:31;;;;;;;0.20;0.20;;;;;;;;;;5015171;28;20038;-61
2023/07/27 12:05:57;;;;;;;0.30;0.30;;;;;;;;;;5015065;28;20038;-61
2023/07/27 12:08:23;;;;;;;0.30;0.30;;;;;;;;;;5019061;28;20042;-62
2023/07/27 12:10:57;;;;;;;0.35;0.20;;;;;;;;;;5020074;28;20053;-62
2023/07/27 12:13:26;;;;;;;0.20;0.20;;;;;;;;;;5020689;28;20045;-62
2023/07/27 12:15:59;;;;;;;0.20;0.20;;;;;;;;;;5012436;28;20093;-62
2023/07/27 12:18:26;;;;;;;0.40;0.40;;;;;;;;;;5021086;28;20095;-62
2023/07/27 12:20:53;;;;;;;0.20;0.20;;;;;;;;;;5022270;28;20042;-62
2023/07/27 12:23:19;;;;;;;0.30;0.30;;;;;;;;;;5016577;28;20052;-61
2023/07/27 12:25:45;;;;;;;0.20;0.20;;;;;;;;;;5017444;28;20045;-61
2023/07/27 12:28:11;;;;;;;0.20;0.20;;;;;;;;;;5017206;28;20364;-62
2023/07/27 12:30:37;;;;;;;0.20;0.20;;;;;;;;;;5020978;28;20406;-62
2023/07/27 12:33:03;;;;;;;0.20;0.20;;;;;;;;;;5016452;28;20041;-62
2023/07/27 12:35:29;;;;;;;0.30;0.30;;;;;;;;;;5015818;28;20042;-62
2023/07/27 12:37:55;;;;;;;0.10;0.10;;;;;;;;;;5016705;28;20045;-62
2023/07/27 12:40:21;;;;;;;0.20;0.20;;;;;;;;;;5017386;28;20132;-62
2023/07/27 12:42:47;;;;;;;0.20;0.20;;;;;;;;;;5007540;28;20090;-62
2023/07/27 12:45:14;;;;;;;0.28;0.28;;;;;;;;;;5023686;28;20056;-62
2023/07/27 12:47:42;;;;;;;0.20;0.20;;;;;;;;;;5013767;28;20064;-62
2023/07/27 12:50:09;;;;;;;0.13;0.13;;;;;;;;;;5010362;28;20088;-62
2023/07/27 12:52:35;;;;;;;0.20;0.20;;;;;;;;;;5018760;28;20061;-62
2023/07/27 12:55:01;;;;;;;0.35;0.20;;;;;;;;;;5010418;28;20399;-62
2023/07/27 12:57:27;;;;;;;0.20;0.20;;;;;;;;;;5005182;28;20155;-62
2023/07/27 12:59:53;;;;;;;0.30;0.30;;;;;;;;;;5016208;28;20044;-62
2023/07/27 13:02:19;;;;;;;0.20;0.20;;;;;;;;;;5022555;28;20033;-62
2023/07/27 13:04:45;;;;;;;0.10;0.10;;;;;;;;;;5019500;28;20487;-62
2023/07/27 13:07:13;;;;;;;0.20;0.20;;;;;;;;;;5010516;28;20037;-62
2023/07/27 13:09:40;;;;;;;0.30;0.30;;;;;;;;;;5018784;28;20415;-62
2023/07/27 13:12:07;;;;;;;0.20;0.20;;;;;;;;;;5021431;28;20402;-62
2023/07/27 13:14:33;;;;;;;0.45;0.10;;;;;;;;;;5024624;28;20468;-62
2023/07/27 13:16:59;;;;;;;0.20;0.20;;;;;;;;;;5020392;28;20112;-62
2023/07/27 13:19:25;;;;;;;0.20;0.20;;;;;;;;;;5012193;28;20384;-62
2023/07/27 13:21:51;;;;;;;0.45;0.20;;;;;;;;;;5023414;28;20035;-61
2023/07/27 13:24:17;;;;;;;0.20;0.20;;;;;;;;;;5014313;28;20044;-61
2023/07/27 13:26:43;;;;;;;0.10;0.10;;;;;;;;;;5017697;28;20044;-61
2023/07/27 13:29:11;;;;;;;0.10;0.10;;;;;;;;;;5019199;28;20037;-61
2023/07/27 13:31:37;;;;;;;0.20;0.20;;;;;;;;;;5018878;28;20045;-61
2023/07/27 13:34:03;;;;;;;0.10;0.10;;;;;;;;;;5020279;28;20050;-62
2023/07/27 13:36:29;;;;;;;0.10;0.10;;;;;;;;;;5020920;28;20048;-62
2023/07/27 13:38:55;;;;;;;0.10;0.10;;;;;;;;;;5019768;28;20042;-62
2023/07/27 13:41:21;;;;;;;0.00;0.00;;;;;;;;;;5020590;28;20446;-62
2023/07/27 13:43:47;;;;;;;0.10;0.10;;;;;;;;;;5019195;28;20033;-62
2023/07/27 13:46:14;;;;;;;0.10;0.10;;;;;;;;;;5020383;28;20045;-62
2023/07/27 13:48:40;;;;;;;0.05;0.05;;;;;;;;;;5023578;28;20513;-62
2023/07/27 13:51:06;;;;;;;0.10;0.10;;;;;;;;;;5017047;28;20369;-62
2023/07/27 13:53:32;;;;;;;0.10;0.10;;;;;;;;;;5015772;28;20103;-62
2023/07/27 13:55:58;;;;;;;0.10;0.10;;;;;;;;;;5013596;28;20053;-62
2023/07/27 13:58:24;;;;;;;0.10;0.10;;;;;;;;;;5010865;28;20443;-62
2023/07/27 14:00:52;;;;;;;0.05;0.05;;;;;;;;;;5024280;28;20048;-62
2023/07/27 14:03:18;;;;;;;0.20;0.20;;;;;;;;;;5025060;28;20497;-61
2023/07/27 14:05:44;;;;;;;0.10;0.10;;;;;;;;;;5020941;28;20341;-62
2023/07/27 14:08:10;;;;;;;0.13;0.13;;;;;;;;;;5020834;28;20038;-62
2023/07/27 14:10:36;;;;;;;0.15;0.15;;;;;;;;;;5018009;28;20045;-62
2023/07/27 14:13:02;;;;;;;0.10;0.10;;;;;;;;;;5025900;28;20099;-62
2023/07/27 14:15:28;;;;;;;0.20;0.20;;;;;;;;;;5020504;28;20037;-61
2023/07/27 14:17:54;;;;;;;0.10;0.10;;;;;;;;;;5021953;28;20041;-62
2023/07/27 14:20:20;;;;;;;0.10;0.10;;;;;;;;;;5024257;28;20099;-62
2023/07/27 14:22:46;;;;;;;0.10;0.10;;;;;;;;;;5018284;28;20083;-62
2023/07/27 14:25:12;;;;;;;0.05;0.05;;;;;;;;;;5015473;28;20136;-62
2023/07/27 14:27:38;;;;;;;0.03;0.03;;;;;;;;;;5019349;28;20084;-62
2023/07/27 14:30:05;;;;;;;0.10;0.10;;;;;;;;;;5016081;28;20554;-62
2023/07/27 14:32:31;;;;;;;0.10;0.10;;;;;;;;;;5015215;28;20048;-62
2023/07/27 14:34:57;;;;;;;0.20;0.10;;;;;;;;;;5017148;28;20553;-62
2023/07/27 14:37:23;;;;;;;0.00;0.00;;;;;;;;;;5016242;28;20061;-62
2023/07/27 14:39:49;;;;;;;0.00;0.00;;;;;;;;;;5019388;28;20117;-62
2023/07/27 14:42:16;;;;;;;0.00;0.00;;;;;;;;;;5016386;28;20042;-62